createdAt,value
2023-04-10T00:00:14.632Z,22.79
2023-04-10T00:01:14.686Z,22.76
2023-04-10T00:02:14.769Z,22.72
2023-04-10T00:03:15.044Z,22.71
2023-04-10T00:04:14.933Z,22.75
2023-04-10T00:05:15.266Z,22.71
2023-04-10T00:06:14.963Z,22.69
2023-04-10T00:07:15.026Z,22.67
2023-04-10T00:08:15.111Z,22.67
2023-04-10T00:09:15.148Z,22.71
2023-04-10T00:10:15.205Z,22.72
2023-04-10T00:11:15.336Z,22.71
2023-04-10T00:12:15.314Z,22.75
2023-04-10T00:13:15.366Z,22.73
2023-04-10T00:14:16.059Z,22.71
2023-04-10T00:15:15.419Z,22.72
2023-04-10T00:16:15.606Z,22.72
2023-04-10T00:17:15.523Z,22.78
2023-04-10T00:18:15.574Z,22.72
2023-04-10T00:19:15.631Z,22.72
2023-04-10T00:20:15.693Z,22.73
2023-04-10T00:21:15.723Z,22.72
2023-04-10T00:22:15.747Z,22.69
2023-04-10T00:23:15.783Z,22.72
2023-04-10T00:24:15.819Z,22.72
2023-04-10T00:25:15.848Z,22.69
2023-04-10T00:26:15.872Z,22.72
2023-04-10T00:27:15.917Z,22.75
2023-04-10T00:28:15.908Z,22.76
2023-04-10T00:29:15.928Z,22.72
2023-04-10T00:30:15.924Z,22.73
2023-04-10T00:31:15.940Z,22.76
2023-04-10T00:32:16.010Z,22.76
2023-04-10T00:33:15.926Z,22.75
2023-04-10T00:34:15.945Z,22.70
2023-04-10T00:35:15.959Z,22.76
2023-04-10T00:36:15.997Z,22.70
2023-04-10T00:37:15.952Z,22.72
2023-04-10T00:38:15.981Z,22.73
2023-04-10T00:39:15.970Z,22.70
2023-04-10T00:40:15.990Z,22.72
2023-04-10T00:41:15.979Z,22.75
2023-04-10T00:42:16.011Z,22.73
2023-04-10T00:43:15.984Z,22.71
2023-04-10T00:44:15.986Z,22.75
2023-04-10T00:45:16.014Z,22.72
2023-04-10T00:46:16.153Z,22.74
2023-04-10T00:47:16.036Z,22.77
2023-04-10T00:48:16.074Z,22.75
2023-04-10T00:49:16.092Z,22.75
2023-04-10T00:50:16.125Z,22.75
2023-04-10T00:51:16.144Z,22.76
2023-04-10T00:52:16.258Z,22.75
2023-04-10T00:53:16.224Z,22.73
2023-04-10T00:54:16.254Z,22.75
2023-04-10T00:55:16.307Z,22.75
2023-04-10T00:56:16.345Z,22.72
2023-04-10T00:57:16.397Z,22.69
2023-04-10T00:58:16.455Z,22.67
2023-04-10T00:59:16.511Z,22.67
2023-04-10T01:00:16.582Z,22.73
2023-04-10T01:01:16.747Z,22.75
2023-04-10T01:02:16.767Z,22.70
2023-04-10T01:03:16.912Z,22.69
2023-04-10T01:04:16.942Z,22.72
2023-04-10T01:05:16.887Z,22.77
2023-04-10T01:06:16.942Z,22.76
2023-04-10T01:07:16.990Z,22.69
2023-04-10T01:08:17.590Z,22.73
2023-04-10T01:09:17.095Z,22.70
2023-04-10T01:10:17.144Z,22.67
2023-04-10T01:11:17.206Z,22.69
2023-04-10T01:12:17.231Z,22.72
2023-04-10T01:13:17.390Z,22.67
2023-04-10T01:14:17.350Z,22.66
2023-04-10T01:15:18.079Z,22.66
2023-04-10T01:16:17.479Z,22.73
2023-04-10T01:17:17.509Z,22.69
2023-04-10T01:18:17.579Z,22.70
2023-04-10T01:19:17.610Z,22.63
2023-04-10T01:20:17.666Z,22.72
2023-04-10T01:21:17.740Z,22.67
2023-04-10T01:22:17.763Z,22.64
2023-04-10T01:23:17.840Z,22.67
2023-04-10T01:24:17.901Z,22.72
2023-04-10T01:25:17.957Z,22.63
2023-04-10T01:26:18.024Z,22.66
2023-04-10T01:27:18.062Z,22.66
2023-04-10T01:28:18.122Z,22.63
2023-04-10T01:29:18.173Z,22.67
2023-04-10T01:30:18.332Z,22.64
2023-04-10T01:31:18.402Z,22.60
2023-04-10T01:32:18.312Z,22.70
2023-04-10T01:33:18.388Z,22.64
2023-04-10T01:34:18.496Z,22.65
2023-04-10T01:35:18.490Z,22.64
2023-04-10T01:36:18.550Z,22.63
2023-04-10T01:37:18.601Z,22.69
2023-04-10T01:38:18.661Z,22.63
2023-04-10T01:39:18.716Z,22.64
2023-04-10T01:40:18.773Z,22.67
2023-04-10T01:41:19.096Z,22.63
2023-04-10T01:42:18.893Z,22.63
2023-04-10T01:43:18.956Z,22.62
2023-04-10T01:44:19.006Z,22.64
2023-04-10T01:45:19.060Z,22.57
2023-04-10T01:46:19.172Z,22.64
2023-04-10T01:47:19.202Z,22.57
2023-04-10T01:48:19.238Z,22.55
2023-04-10T01:49:19.301Z,22.61
2023-04-10T01:50:19.345Z,22.64
2023-04-10T01:51:19.416Z,22.59
2023-04-10T01:52:19.479Z,22.63
2023-04-10T01:53:19.506Z,22.58
2023-04-10T01:54:20.093Z,22.61
2023-04-10T01:55:19.629Z,22.57
2023-04-10T01:56:19.739Z,22.61
2023-04-10T01:57:19.733Z,22.58
2023-04-10T01:58:19.782Z,22.54
2023-04-10T01:59:19.824Z,22.61
2023-04-10T02:00:19.919Z,22.61
2023-04-10T02:01:29.113Z,22.64
2023-04-10T02:02:21.042Z,22.61
2023-04-10T02:03:20.316Z,22.58
2023-04-10T02:04:19.956Z,22.66
2023-04-10T02:05:19.997Z,22.61
2023-04-10T02:06:19.908Z,22.55
2023-04-10T02:07:19.989Z,22.64
2023-04-10T02:08:19.894Z,22.58
2023-04-10T02:09:19.906Z,22.54
2023-04-10T02:10:19.890Z,22.54
2023-04-10T02:11:19.873Z,22.60
2023-04-10T02:12:19.874Z,22.55
2023-04-10T02:13:19.892Z,22.58
2023-04-10T02:14:19.921Z,22.64
2023-04-10T02:15:19.962Z,22.63
2023-04-10T02:16:20.051Z,22.61
2023-04-10T02:17:20.135Z,22.62
2023-04-10T02:18:20.077Z,22.65
2023-04-10T02:19:20.202Z,22.60
2023-04-10T02:20:20.170Z,22.61
2023-04-10T02:21:20.222Z,22.69
2023-04-10T02:22:20.262Z,22.61
2023-04-10T02:23:21.109Z,22.58
2023-04-10T02:24:20.337Z,22.58
2023-04-10T02:25:20.359Z,22.65
2023-04-10T02:26:20.380Z,22.61
2023-04-10T02:27:20.416Z,22.65
2023-04-10T02:28:20.434Z,22.60
2023-04-10T02:29:20.455Z,22.62
2023-04-10T02:30:20.465Z,22.62
2023-04-10T02:31:20.504Z,22.64
2023-04-10T02:32:20.524Z,22.61
2023-04-10T02:33:20.536Z,22.58
2023-04-10T02:34:20.632Z,22.62
2023-04-10T02:35:20.603Z,22.58
2023-04-10T02:36:20.583Z,22.61
2023-04-10T02:37:20.612Z,22.64
2023-04-10T02:38:20.611Z,22.56
2023-04-10T02:39:20.614Z,22.59
2023-04-10T02:40:20.627Z,22.60
2023-04-10T02:41:20.651Z,22.58
2023-04-10T02:42:20.679Z,22.59
2023-04-10T02:43:20.689Z,22.59
2023-04-10T02:44:20.699Z,22.64
2023-04-10T02:45:20.732Z,22.59
2023-04-10T02:46:21.676Z,22.62
2023-04-10T02:47:20.742Z,22.53
2023-04-10T02:48:20.743Z,22.62
2023-04-10T02:49:20.735Z,22.63
2023-04-10T02:50:20.746Z,22.58
2023-04-10T02:51:20.776Z,22.57
2023-04-10T02:52:20.749Z,22.59
2023-04-10T02:53:20.762Z,22.54
2023-04-10T02:54:20.753Z,22.56
2023-04-10T02:55:20.750Z,22.54
2023-04-10T02:56:20.756Z,22.57
2023-04-10T02:57:20.732Z,22.60
2023-04-10T02:58:20.743Z,22.62
2023-04-10T02:59:20.738Z,22.57
2023-04-10T03:00:20.765Z,22.54
2023-04-10T03:01:20.772Z,22.60
2023-04-10T03:02:20.814Z,22.65
2023-04-10T03:03:20.987Z,22.60
2023-04-10T03:04:20.963Z,22.59
2023-04-10T03:05:20.747Z,22.62
2023-04-10T03:06:20.736Z,22.59
2023-04-10T03:07:20.728Z,22.63
2023-04-10T03:08:20.786Z,22.62
2023-04-10T03:09:20.760Z,22.59
2023-04-10T03:10:20.834Z,22.57
2023-04-10T03:11:20.784Z,22.63
2023-04-10T03:12:20.762Z,22.56
2023-04-10T03:13:20.775Z,22.57
2023-04-10T03:14:20.770Z,22.56
2023-04-10T03:15:20.757Z,22.60
2023-04-10T03:16:20.870Z,22.56
2023-04-10T03:17:20.854Z,22.53
2023-04-10T03:18:20.867Z,22.57
2023-04-10T03:19:20.861Z,22.59
2023-04-10T03:20:21.641Z,22.50
2023-04-10T03:21:21.134Z,22.56
2023-04-10T03:22:20.876Z,22.62
2023-04-10T03:23:20.922Z,22.62
2023-04-10T03:24:20.921Z,22.63
2023-04-10T03:25:21.637Z,22.54
2023-04-10T03:26:20.954Z,22.57
2023-04-10T03:27:21.630Z,22.57
2023-04-10T03:28:20.947Z,22.57
2023-04-10T03:29:20.928Z,22.59
2023-04-10T03:30:20.918Z,22.54
2023-04-10T03:31:20.965Z,22.62
2023-04-10T03:32:20.926Z,22.59
2023-04-10T03:33:20.976Z,22.57
2023-04-10T03:34:20.927Z,22.59
2023-04-10T03:35:20.944Z,22.62
2023-04-10T03:36:20.966Z,22.60
2023-04-10T03:37:20.942Z,22.56
2023-04-10T03:38:20.937Z,22.59
2023-04-10T03:39:20.941Z,22.57
2023-04-10T03:40:20.934Z,22.57
2023-04-10T03:41:20.940Z,22.63
2023-04-10T03:42:20.940Z,22.60
2023-04-10T03:43:20.941Z,22.60
2023-04-10T03:44:20.973Z,22.60
2023-04-10T03:45:21.032Z,22.59
2023-04-10T03:46:20.992Z,22.57
2023-04-10T03:47:20.973Z,22.54
2023-04-10T03:48:20.974Z,22.60
2023-04-10T03:49:20.986Z,22.57
2023-04-10T03:50:20.987Z,22.57
2023-04-10T03:51:20.977Z,22.60
2023-04-10T03:52:20.974Z,22.62
2023-04-10T03:53:20.981Z,22.62
2023-04-10T03:54:20.978Z,22.54
2023-04-10T03:55:20.993Z,22.57
2023-04-10T03:56:20.969Z,22.57
2023-04-10T03:57:20.970Z,22.53
2023-04-10T03:58:21.008Z,22.53
2023-04-10T03:59:24.299Z,22.56
2023-04-10T04:00:22.005Z,22.51
2023-04-10T04:01:20.993Z,22.49
2023-04-10T04:02:21.069Z,22.51
2023-04-10T04:03:21.210Z,22.50
2023-04-10T04:04:21.040Z,22.50
2023-04-10T04:05:20.965Z,22.54
2023-04-10T04:06:20.961Z,22.54
2023-04-10T04:07:20.947Z,22.53
2023-04-10T04:08:20.949Z,22.51
2023-04-10T04:09:20.939Z,22.54
2023-04-10T04:10:20.948Z,22.51
2023-04-10T04:11:21.152Z,22.54
2023-04-10T04:12:20.922Z,22.56
2023-04-10T04:13:20.918Z,22.56
2023-04-10T04:14:20.912Z,22.55
2023-04-10T04:15:20.901Z,22.56
2023-04-10T04:16:20.992Z,22.52
2023-04-10T04:17:20.897Z,22.53
2023-04-10T04:18:20.888Z,22.56
2023-04-10T04:19:20.871Z,22.52
2023-04-10T04:20:20.863Z,22.52
2023-04-10T04:21:20.881Z,22.54
2023-04-10T04:22:20.928Z,22.49
2023-04-10T04:23:20.964Z,22.54
2023-04-10T04:24:20.974Z,22.48
2023-04-10T04:25:20.988Z,22.49
2023-04-10T04:26:21.024Z,22.46
2023-04-10T04:27:21.091Z,22.45
2023-04-10T04:28:21.042Z,22.51
2023-04-10T04:29:21.048Z,22.52
2023-04-10T04:30:21.073Z,22.46
2023-04-10T04:31:21.140Z,22.49
2023-04-10T04:32:21.205Z,22.49
2023-04-10T04:33:21.089Z,22.45
2023-04-10T04:34:21.087Z,22.45
2023-04-10T04:35:21.097Z,22.46
2023-04-10T04:36:21.099Z,22.45
2023-04-10T04:37:21.087Z,22.48
2023-04-10T04:38:21.092Z,22.42
2023-04-10T04:39:21.099Z,22.40
2023-04-10T04:40:21.107Z,22.38
2023-04-10T04:41:21.133Z,22.45
2023-04-10T04:42:21.152Z,22.43
2023-04-10T04:43:21.174Z,22.44
2023-04-10T04:44:21.178Z,22.40
2023-04-10T04:45:21.190Z,22.40
2023-04-10T04:46:21.232Z,22.43
2023-04-10T04:47:21.243Z,22.45
2023-04-10T04:48:21.241Z,22.45
2023-04-10T04:49:21.243Z,22.42
2023-04-10T04:50:21.265Z,22.48
2023-04-10T04:51:21.291Z,22.37
2023-04-10T04:52:21.314Z,22.46
2023-04-10T04:53:21.360Z,22.42
2023-04-10T04:54:21.357Z,22.45
2023-04-10T04:55:21.422Z,22.46
2023-04-10T04:56:21.412Z,22.39
2023-04-10T04:57:21.423Z,22.42
2023-04-10T04:58:21.423Z,22.40
2023-04-10T04:59:21.424Z,22.40
2023-04-10T05:00:21.426Z,22.39
2023-04-10T05:01:21.486Z,22.39
2023-04-10T05:02:21.698Z,22.43
2023-04-10T05:03:21.668Z,22.43
2023-04-10T05:04:21.597Z,22.40
2023-04-10T05:05:21.476Z,22.37
2023-04-10T05:06:21.680Z,22.39
2023-04-10T05:07:21.552Z,22.39
2023-04-10T05:08:21.659Z,22.40
2023-04-10T05:09:21.616Z,22.39
2023-04-10T05:10:21.656Z,22.36
2023-04-10T05:11:21.673Z,22.37
2023-04-10T05:12:21.705Z,22.36
2023-04-10T05:13:21.731Z,22.36
2023-04-10T05:14:21.758Z,22.36
2023-04-10T05:15:21.777Z,22.37
2023-04-10T05:16:21.851Z,22.37
2023-04-10T05:17:21.841Z,22.36
2023-04-10T05:18:21.849Z,22.37
2023-04-10T05:19:22.679Z,22.37
2023-04-10T05:20:21.837Z,22.33
2023-04-10T05:21:21.821Z,22.40
2023-04-10T05:22:21.821Z,22.43
2023-04-10T05:23:21.819Z,22.36
2023-04-10T05:24:21.824Z,22.42
2023-04-10T05:25:21.838Z,22.39
2023-04-10T05:26:21.864Z,22.37
2023-04-10T05:27:21.863Z,22.40
2023-04-10T05:28:21.895Z,22.42
2023-04-10T05:29:22.170Z,22.39
2023-04-10T05:30:21.980Z,22.34
2023-04-10T05:31:22.115Z,22.37
2023-04-10T05:32:22.063Z,22.35
2023-04-10T05:33:22.078Z,22.34
2023-04-10T05:34:22.118Z,22.32
2023-04-10T05:35:22.151Z,22.32
2023-04-10T05:36:22.183Z,22.29
2023-04-10T05:37:22.219Z,22.38
2023-04-10T05:38:22.264Z,22.35
2023-04-10T05:39:22.293Z,22.30
2023-04-10T05:40:22.329Z,22.30
2023-04-10T05:41:22.339Z,22.32
2023-04-10T05:42:23.910Z,22.33
2023-04-10T05:43:23.178Z,22.35
2023-04-10T05:44:22.453Z,22.35
2023-04-10T05:45:22.509Z,22.34
2023-04-10T05:46:22.604Z,22.30
2023-04-10T05:47:22.596Z,22.35
2023-04-10T05:48:22.677Z,22.35
2023-04-10T05:49:22.666Z,22.35
2023-04-10T05:50:23.105Z,22.29
2023-04-10T05:51:22.763Z,22.33
2023-04-10T05:52:22.848Z,22.29
2023-04-10T05:53:22.866Z,22.33
2023-04-10T05:54:22.905Z,22.27
2023-04-10T05:55:22.941Z,22.32
2023-04-10T05:56:23.004Z,22.32
2023-04-10T05:57:23.009Z,22.32
2023-04-10T05:58:23.064Z,22.35
2023-04-10T05:59:23.098Z,22.38
2023-04-10T06:00:23.151Z,22.35
2023-04-10T06:01:23.198Z,22.29
2023-04-10T06:02:23.470Z,22.29
2023-04-10T06:03:23.331Z,22.33
2023-04-10T06:04:23.541Z,22.36
2023-04-10T06:05:23.476Z,22.34
2023-04-10T06:06:23.435Z,22.32
2023-04-10T06:07:23.475Z,22.27
2023-04-10T06:08:23.520Z,22.24
2023-04-10T06:09:23.587Z,22.32
2023-04-10T06:10:23.642Z,22.27
2023-04-10T06:11:23.704Z,22.28
2023-04-10T06:12:23.813Z,22.31
2023-04-10T06:13:23.836Z,22.25
2023-04-10T06:14:23.872Z,22.28
2023-04-10T06:15:23.922Z,22.23
2023-04-10T06:16:24.114Z,22.26
2023-04-10T06:17:24.065Z,22.28
2023-04-10T06:18:24.098Z,22.29
2023-04-10T06:19:24.149Z,22.28
2023-04-10T06:20:24.215Z,22.25
2023-04-10T06:21:24.466Z,22.28
2023-04-10T06:22:24.353Z,22.33
2023-04-10T06:23:24.410Z,22.22
2023-04-10T06:24:24.462Z,22.21
2023-04-10T06:25:24.528Z,22.22
2023-04-10T06:26:24.553Z,22.21
2023-04-10T06:27:24.617Z,22.22
2023-04-10T06:28:24.684Z,22.24
2023-04-10T06:29:24.766Z,22.14
2023-04-10T06:30:24.868Z,22.05
2023-04-10T06:31:24.869Z,22.00
2023-04-10T06:32:25.251Z,21.94
2023-04-10T06:33:26.419Z,21.96
2023-04-10T06:34:24.946Z,21.92
2023-04-10T06:35:25.008Z,21.81
2023-04-10T06:36:25.029Z,21.81
2023-04-10T06:37:25.064Z,21.77
2023-04-10T06:38:25.084Z,21.76
2023-04-10T06:39:25.112Z,21.70
2023-04-10T06:40:25.130Z,21.63
2023-04-10T06:41:25.151Z,21.66
2023-04-10T06:42:25.174Z,21.58
2023-04-10T06:43:25.187Z,21.62
2023-04-10T06:44:25.188Z,21.52
2023-04-10T06:45:25.280Z,21.46
2023-04-10T06:46:25.299Z,21.50
2023-04-10T06:47:25.227Z,21.46
2023-04-10T06:48:25.201Z,21.37
2023-04-10T06:49:25.396Z,21.34
2023-04-10T06:50:25.276Z,21.26
2023-04-10T06:51:25.317Z,21.21
2023-04-10T06:52:25.364Z,21.18
2023-04-10T06:53:25.427Z,21.15
2023-04-10T06:54:25.485Z,21.13
2023-04-10T06:55:25.536Z,21.07
2023-04-10T06:56:25.585Z,21.04
2023-04-10T06:57:25.639Z,21.01
2023-04-10T06:58:25.772Z,21.00
2023-04-10T06:59:25.750Z,20.93
2023-04-10T07:00:25.757Z,20.92
2023-04-10T07:01:26.542Z,20.83
2023-04-10T07:02:25.912Z,20.88
2023-04-10T07:03:25.907Z,20.82
2023-04-10T07:04:25.888Z,20.80
2023-04-10T07:05:25.920Z,20.77
2023-04-10T07:06:25.946Z,20.75
2023-04-10T07:07:25.944Z,20.70
2023-04-10T07:08:25.951Z,20.66
2023-04-10T07:09:25.959Z,20.65
2023-04-10T07:10:25.987Z,20.56
2023-04-10T07:11:25.980Z,20.52
2023-04-10T07:12:25.981Z,20.55
2023-04-10T07:13:26.004Z,20.43
2023-04-10T07:14:26.172Z,20.48
2023-04-10T07:15:26.130Z,20.47
2023-04-10T07:16:26.163Z,20.44
2023-04-10T07:17:26.164Z,20.37
2023-04-10T07:18:26.123Z,20.35
2023-04-10T07:19:26.243Z,20.35
2023-04-10T07:20:26.165Z,20.27
2023-04-10T07:21:26.163Z,20.27
2023-04-10T07:22:26.181Z,20.24
2023-04-10T07:23:26.205Z,20.15
2023-04-10T07:24:26.222Z,20.17
2023-04-10T07:25:26.268Z,20.20
2023-04-10T07:26:26.359Z,20.20
2023-04-10T07:27:26.376Z,20.17
2023-04-10T07:28:26.427Z,20.10
2023-04-10T07:29:26.470Z,20.10
2023-04-10T07:30:26.583Z,20.06
2023-04-10T07:31:26.722Z,20.01
2023-04-10T07:32:27.168Z,20.01
2023-04-10T07:33:26.786Z,19.91
2023-04-10T07:34:26.731Z,19.97
2023-04-10T07:35:26.771Z,19.87
2023-04-10T07:36:26.814Z,19.86
2023-04-10T07:37:26.861Z,19.85
2023-04-10T07:38:26.897Z,19.80
2023-04-10T07:39:26.949Z,19.79
2023-04-10T07:40:26.949Z,19.76
2023-04-10T07:41:26.987Z,19.79
2023-04-10T07:42:27.006Z,19.78
2023-04-10T07:43:27.025Z,19.70
2023-04-10T07:44:27.049Z,19.72
2023-04-10T07:45:27.134Z,19.69
2023-04-10T07:46:27.095Z,19.69
2023-04-10T07:47:27.132Z,19.58
2023-04-10T07:48:27.118Z,19.62
2023-04-10T07:49:27.152Z,19.54
2023-04-10T07:50:27.357Z,19.54
2023-04-10T07:51:27.366Z,19.50
2023-04-10T07:52:27.121Z,19.44
2023-04-10T07:53:27.100Z,19.37
2023-04-10T07:54:27.105Z,19.31
2023-04-10T07:55:27.091Z,19.23
2023-04-10T07:56:27.137Z,19.20
2023-04-10T07:57:27.163Z,19.18
2023-04-10T07:58:27.736Z,19.08
2023-04-10T07:59:27.273Z,18.98
2023-04-10T08:00:27.294Z,18.95
2023-04-10T08:01:27.357Z,18.88
2023-04-10T08:02:27.495Z,18.78
2023-04-10T08:03:27.545Z,18.74
2023-04-10T08:04:27.675Z,18.65
2023-04-10T08:05:27.524Z,18.54
2023-04-10T08:06:27.492Z,18.56
2023-04-10T08:07:27.498Z,18.37
2023-04-10T08:08:27.493Z,18.25
2023-04-10T08:09:27.518Z,18.18
2023-04-10T08:10:27.509Z,18.07
2023-04-10T08:11:27.521Z,18.00
2023-04-10T08:12:27.505Z,17.93
2023-04-10T08:13:28.263Z,17.86
2023-04-10T08:14:27.554Z,17.72
2023-04-10T08:15:27.601Z,17.67
2023-04-10T08:16:27.658Z,17.61
2023-04-10T08:17:27.680Z,17.60
2023-04-10T08:18:27.714Z,17.53
2023-04-10T08:19:27.786Z,17.48
2023-04-10T08:20:27.848Z,17.48
2023-04-10T08:21:27.911Z,17.51
2023-04-10T08:22:27.970Z,17.51
2023-04-10T08:23:28.025Z,17.53
2023-04-10T08:24:28.092Z,17.58
2023-04-10T08:25:28.148Z,17.49
2023-04-10T08:26:28.221Z,17.43
2023-04-10T08:27:28.265Z,17.24
2023-04-10T08:28:28.269Z,17.26
2023-04-10T08:29:28.359Z,17.20
2023-04-10T08:30:28.327Z,17.17
2023-04-10T08:31:28.606Z,17.19
2023-04-10T08:32:28.373Z,17.26
2023-04-10T08:33:28.389Z,17.29
2023-04-10T08:34:28.461Z,17.35
2023-04-10T08:35:28.494Z,17.39
2023-04-10T08:36:28.545Z,17.39
2023-04-10T08:37:28.574Z,17.48
2023-04-10T08:38:28.618Z,17.53
2023-04-10T08:39:28.668Z,17.55
2023-04-10T08:40:28.700Z,17.62
2023-04-10T08:41:28.752Z,17.62
2023-04-10T08:42:28.809Z,17.67
2023-04-10T08:43:28.821Z,17.78
2023-04-10T08:44:28.826Z,17.82
2023-04-10T08:45:28.889Z,17.85
2023-04-10T08:46:28.950Z,17.85
2023-04-10T08:47:29.014Z,17.86
2023-04-10T08:48:29.083Z,17.91
2023-04-10T08:49:28.990Z,17.97
2023-04-10T08:50:29.019Z,17.97
2023-04-10T08:51:29.066Z,17.99
2023-04-10T08:52:29.072Z,18.04
2023-04-10T08:53:29.116Z,18.02
2023-04-10T08:54:29.160Z,18.04
2023-04-10T08:55:29.202Z,18.06
2023-04-10T08:56:29.235Z,18.12
2023-04-10T08:57:29.268Z,18.10
2023-04-10T08:58:29.313Z,18.11
2023-04-10T08:59:29.380Z,18.17
2023-04-10T09:00:29.425Z,18.15
2023-04-10T09:01:29.513Z,18.21
2023-04-10T09:02:29.602Z,18.21
2023-04-10T09:03:29.746Z,18.26
2023-04-10T09:04:29.723Z,18.31
2023-04-10T09:05:29.690Z,18.35
2023-04-10T09:06:29.729Z,18.36
2023-04-10T09:07:29.816Z,18.34
2023-04-10T09:08:29.856Z,18.33
2023-04-10T09:09:29.908Z,18.36
2023-04-10T09:10:29.943Z,18.35
2023-04-10T09:11:29.983Z,18.42
2023-04-10T09:12:30.002Z,18.42
2023-04-10T09:13:29.989Z,18.38
2023-04-10T09:14:30.066Z,18.37
2023-04-10T09:15:30.029Z,18.46
2023-04-10T09:16:30.327Z,18.37
2023-04-10T09:17:30.060Z,18.40
2023-04-10T09:18:30.074Z,18.40
2023-04-10T09:19:30.115Z,18.37
2023-04-10T09:20:30.128Z,18.43
2023-04-10T09:21:30.158Z,18.42
2023-04-10T09:22:30.150Z,18.39
2023-04-10T09:23:30.157Z,18.37
2023-04-10T09:24:30.168Z,18.37
2023-04-10T09:25:30.185Z,18.42
2023-04-10T09:26:30.192Z,18.36
2023-04-10T09:27:30.201Z,18.39
2023-04-10T09:28:30.218Z,18.39
2023-04-10T09:29:30.829Z,18.33
2023-04-10T09:30:30.244Z,18.35
2023-04-10T09:31:30.267Z,18.30
2023-04-10T09:32:30.274Z,18.29
2023-04-10T09:33:30.293Z,18.36
2023-04-10T09:34:31.262Z,18.36
2023-04-10T09:35:30.342Z,18.32
2023-04-10T09:36:30.412Z,18.36
2023-04-10T09:37:30.415Z,18.38
2023-04-10T09:38:30.454Z,18.39
2023-04-10T09:39:30.465Z,18.43
2023-04-10T09:40:30.499Z,18.38
2023-04-10T09:41:30.787Z,18.41
2023-04-10T09:42:30.531Z,18.41
2023-04-10T09:43:30.545Z,18.41
2023-04-10T09:44:30.575Z,18.45
2023-04-10T09:45:30.606Z,18.48
2023-04-10T09:46:30.646Z,18.49
2023-04-10T09:47:30.635Z,18.51
2023-04-10T09:48:30.623Z,18.54
2023-04-10T09:49:30.654Z,18.52
2023-04-10T09:50:32.409Z,18.55
2023-04-10T09:51:30.637Z,18.58
2023-04-10T09:52:30.628Z,18.55
2023-04-10T09:53:30.610Z,18.64
2023-04-10T09:54:30.604Z,18.63
2023-04-10T09:55:30.592Z,18.58
2023-04-10T09:56:30.600Z,18.64
2023-04-10T09:57:30.591Z,18.63
2023-04-10T09:58:30.570Z,18.69
2023-04-10T09:59:30.567Z,18.70
2023-04-10T10:00:30.568Z,18.67
2023-04-10T10:01:30.591Z,18.73
2023-04-10T10:02:30.709Z,18.70
2023-04-10T10:03:30.594Z,18.72
2023-04-10T10:04:30.598Z,18.77
2023-04-10T10:05:30.541Z,18.77
2023-04-10T10:06:30.521Z,18.78
2023-04-10T10:07:30.517Z,18.77
2023-04-10T10:08:30.519Z,18.84
2023-04-10T10:09:30.506Z,18.84
2023-04-10T10:10:30.489Z,18.87
2023-04-10T10:11:30.500Z,18.87
2023-04-10T10:12:30.482Z,18.82
2023-04-10T10:13:30.471Z,18.88
2023-04-10T10:14:30.467Z,18.96
2023-04-10T10:15:30.465Z,18.94
2023-04-10T10:16:30.494Z,18.96
2023-04-10T10:17:30.454Z,19.00
2023-04-10T10:18:30.451Z,19.06
2023-04-10T10:19:30.491Z,19.10
2023-04-10T10:20:30.435Z,19.05
2023-04-10T10:21:30.421Z,19.13
2023-04-10T10:22:30.425Z,19.14
2023-04-10T10:23:30.417Z,19.20
2023-04-10T10:24:30.407Z,19.24
2023-04-10T10:25:30.394Z,19.29
2023-04-10T10:26:30.403Z,19.31
2023-04-10T10:27:30.386Z,19.36
2023-04-10T10:28:30.374Z,19.36
2023-04-10T10:29:30.373Z,19.37
2023-04-10T10:30:30.775Z,19.35
2023-04-10T10:31:30.386Z,19.41
2023-04-10T10:32:30.842Z,19.50
2023-04-10T10:33:31.303Z,19.43
2023-04-10T10:34:30.336Z,19.49
2023-04-10T10:35:30.325Z,19.47
2023-04-10T10:36:30.366Z,19.52
2023-04-10T10:37:30.321Z,19.51
2023-04-10T10:38:30.827Z,19.54
2023-04-10T10:39:30.299Z,19.59
2023-04-10T10:40:30.287Z,19.60
2023-04-10T10:41:30.836Z,19.63
2023-04-10T10:42:30.343Z,19.63
2023-04-10T10:43:30.371Z,19.63
2023-04-10T10:44:30.436Z,19.63
2023-04-10T10:45:30.536Z,19.64
2023-04-10T10:46:30.518Z,19.64
2023-04-10T10:47:30.604Z,19.72
2023-04-10T10:48:30.624Z,19.71
2023-04-10T10:49:30.779Z,19.73
2023-04-10T10:50:30.725Z,19.79
2023-04-10T10:51:30.783Z,19.79
2023-04-10T10:52:30.824Z,19.80
2023-04-10T10:53:30.887Z,19.84
2023-04-10T10:54:30.925Z,19.90
2023-04-10T10:55:30.992Z,19.90
2023-04-10T10:56:31.052Z,19.94
2023-04-10T10:57:31.102Z,19.93
2023-04-10T10:58:31.168Z,19.96
2023-04-10T10:59:31.214Z,19.99
2023-04-10T11:00:31.260Z,19.99
2023-04-10T11:01:31.352Z,20.06
2023-04-10T11:02:31.427Z,20.04
2023-04-10T11:03:31.460Z,20.07
2023-04-10T11:04:31.415Z,20.12
2023-04-10T11:05:31.454Z,20.11
2023-04-10T11:06:31.486Z,20.16
2023-04-10T11:07:31.480Z,20.17
2023-04-10T11:08:31.476Z,20.21
2023-04-10T11:09:31.481Z,20.20
2023-04-10T11:10:34.596Z,20.18
2023-04-10T11:11:31.479Z,20.26
2023-04-10T11:12:31.484Z,20.26
2023-04-10T11:13:31.458Z,20.27
2023-04-10T11:14:31.537Z,20.33
2023-04-10T11:15:31.458Z,20.34
2023-04-10T11:16:31.647Z,20.34
2023-04-10T11:17:31.473Z,20.34
2023-04-10T11:18:31.438Z,20.37
2023-04-10T11:19:31.430Z,20.40
2023-04-10T11:20:31.425Z,20.43
2023-04-10T11:21:31.432Z,20.41
2023-04-10T11:22:31.478Z,20.45
2023-04-10T11:23:31.451Z,20.43
2023-04-10T11:24:31.829Z,20.43
2023-04-10T11:25:31.395Z,20.45
2023-04-10T11:26:31.400Z,20.41
2023-04-10T11:27:31.390Z,20.48
2023-04-10T11:28:31.374Z,20.48
2023-04-10T11:29:31.392Z,20.44
2023-04-10T11:30:31.401Z,20.47
2023-04-10T11:31:31.374Z,20.47
2023-04-10T11:32:31.399Z,20.54
2023-04-10T11:33:31.343Z,20.51
2023-04-10T11:34:31.341Z,20.53
2023-04-10T11:35:31.476Z,20.54
2023-04-10T11:36:31.333Z,20.57
2023-04-10T11:37:31.314Z,20.60
2023-04-10T11:38:31.302Z,20.63
2023-04-10T11:39:31.480Z,20.61
2023-04-10T11:40:31.286Z,20.61
2023-04-10T11:41:31.311Z,20.58
2023-04-10T11:42:31.277Z,20.65
2023-04-10T11:43:31.276Z,20.70
2023-04-10T11:44:31.279Z,20.70
2023-04-10T11:45:31.245Z,20.62
2023-04-10T11:46:31.394Z,20.74
2023-04-10T11:47:31.267Z,20.74
2023-04-10T11:48:31.232Z,20.73
2023-04-10T11:49:31.232Z,20.74
2023-04-10T11:50:31.205Z,20.71
2023-04-10T11:51:31.200Z,20.78
2023-04-10T11:52:31.197Z,20.77
2023-04-10T11:53:31.196Z,20.72
2023-04-10T11:54:31.209Z,20.80
2023-04-10T11:55:31.180Z,20.84
2023-04-10T11:56:31.174Z,20.78
2023-04-10T11:57:31.174Z,20.86
2023-04-10T11:58:31.167Z,20.83
2023-04-10T11:59:31.168Z,20.86
2023-04-10T12:00:31.146Z,20.87
2023-04-10T12:01:31.127Z,20.87
2023-04-10T12:02:31.420Z,20.91
2023-04-10T12:03:31.241Z,20.91
2023-04-10T12:04:31.438Z,20.91
2023-04-10T12:05:31.174Z,20.92
2023-04-10T12:06:31.123Z,20.94
2023-04-10T12:07:32.029Z,20.95
2023-04-10T12:08:31.215Z,20.97
2023-04-10T12:09:31.270Z,21.01
2023-04-10T12:10:31.328Z,20.99
2023-04-10T12:11:32.349Z,21.03
2023-04-10T12:12:31.459Z,21.03
2023-04-10T12:13:31.489Z,21.03
2023-04-10T12:14:31.544Z,21.03
2023-04-10T12:15:31.631Z,21.05
2023-04-10T12:16:31.634Z,21.08
2023-04-10T12:17:31.706Z,21.07
2023-04-10T12:18:31.770Z,21.07
2023-04-10T12:19:31.807Z,21.08
2023-04-10T12:20:31.867Z,21.11
2023-04-10T12:21:31.900Z,21.08
2023-04-10T12:22:31.970Z,21.13
2023-04-10T12:23:32.015Z,21.03
2023-04-10T12:24:32.068Z,21.08
2023-04-10T12:25:32.125Z,21.06
2023-04-10T12:26:32.186Z,21.05
2023-04-10T12:27:32.349Z,21.15
2023-04-10T12:28:32.292Z,21.14
2023-04-10T12:29:32.349Z,21.15
2023-04-10T12:30:32.413Z,21.14
2023-04-10T12:31:32.516Z,21.17
2023-04-10T12:32:32.565Z,21.20
2023-04-10T12:33:32.584Z,21.15
2023-04-10T12:34:32.642Z,21.12
2023-04-10T12:35:32.707Z,21.12
2023-04-10T12:36:32.740Z,21.13
2023-04-10T12:37:32.784Z,21.12
2023-04-10T12:38:32.837Z,21.13
2023-04-10T12:39:32.880Z,21.13
2023-04-10T12:40:33.872Z,21.15
2023-04-10T12:41:33.022Z,21.13
2023-04-10T12:42:33.063Z,21.18
2023-04-10T12:43:33.123Z,21.15
2023-04-10T12:44:33.171Z,21.15
2023-04-10T12:45:33.212Z,21.19
2023-04-10T12:46:33.265Z,21.18
2023-04-10T12:47:33.276Z,21.13
2023-04-10T12:48:33.332Z,21.18
2023-04-10T12:49:33.333Z,21.15
2023-04-10T12:50:33.341Z,21.16
2023-04-10T12:51:33.372Z,21.22
2023-04-10T12:52:33.375Z,21.19